Terminal Aerodrome Forecast
Issued by NWS Charleston, WV

Current Version | Previous Version | Graphics & Text | Print | Product List | Glossary On
Versions: 1 2 3 4 5 6 7 8 9 10 11 12 13 14 15 16 17 18 19 20 21 22 23 24 25
000
FTUS41 KRLX 010300 AAA
TAFCRW
TAF AMD
KCRW 010326Z 0103/0124 00000KT P6SM FEW240
     FM011100 00000KT 4SM -SNPL BR OVC020
     FM011400 VRB03KT 4SM -RAPL BR OVC010
     FM011500 15004KT 3SM -RA BR OVC008=

USA.gov is the U.S. government's official web portal to all federal, state and local government web resources and services.